Time,TemperatureF,DewpointF,PressureIn,WindDirection,WindDirectionDegrees,WindSpeedMPH,WindSpeedGustMPH,Humidity,HourlyPrecipIn,Conditions,Clouds,dailyrainin,SolarRadiationWatts/m^2,UVIndex,SoftwareType,DateUTC
2026-09-01 00:04:59,75.5,71.7,30.10,SSE,156,0.7,2.3,88,0.00,,,0.00,0,0,n/a,2026-09-01T04:04:59Z
2026-09-01 00:09:57,75.4,71.6,30.10,SSE,147,1.1,2.3,88,0.00,,,0.00,0,0,n/a,2026-09-01T04:09:57Z
2026-09-01 00:14:57,75.3,71.5,30.10,SSE,148,0.2,2.3,88,0.00,,,0.00,0,0,n/a,2026-09-01T04:14:57Z
2026-09-01 00:19:57,75.2,71.5,30.10,SSE,149,0.1,2.3,88.5,0.00,,,0.00,0,0,n/a,2026-09-01T04:19:57Z
2026-09-01 00:24:56,75.1,71.6,30.10,SSE,149,0,2.3,89,0.00,,,0.00,0,0,n/a,2026-09-01T04:24:56Z
2026-09-01 00:29:56,75,71.5,30.10,SSE,149,0,2.3,89,0.00,,,0.00,0,0,n/a,2026-09-01T04:29:56Z
2026-09-01 00:34:58,74.9,71.4,30.10,SSE,149,0,0,89,0.00,,,0.00,0,0,n/a,2026-09-01T04:34:58Z
2026-09-01 00:39:58,74.9,71.5,30.10,SSE,149,0,0,89.4,0.00,,,0.00,0,0,n/a,2026-09-01T04:39:58Z
2026-09-01 00:44:57,74.8,71.6,30.10,SSE,149,0.5,1.2,89.8,0.00,,,0.00,0,0,n/a,2026-09-01T04:44:57Z
2026-09-01 00:49:59,74.6,71.1,30.10,SSE,149,1.2,1.2,89,0.00,,,0.00,0,0,n/a,2026-09-01T04:49:59Z
2026-09-01 00:54:56,74.4,71.2,30.10,SSE,149,0.4,2.3,89.7,0.00,,,0.00,0,0,n/a,2026-09-01T04:54:56Z
2026-09-01 00:59:58,74.3,71.2,30.11,SSE,149,0,0,90,0.00,,,0.00,0,0,n/a,2026-09-01T04:59:58Z
2026-09-01 01:04:58,74.2,71.1,30.11,SSE,149,0.1,2.3,90,0.00,,,0.00,0,0,n/a,2026-09-01T05:04:58Z
2026-09-01 01:09:58,74.1,71.2,30.11,SSE,149,0.2,2.3,90.4,0.00,,,0.00,0,0,n/a,2026-09-01T05:09:58Z
2026-09-01 01:14:58,74,71.1,30.11,SSE,149,0,0,90.5,0.00,,,0.00,0,0,n/a,2026-09-01T05:14:58Z
2026-09-01 01:19:57,74,71,30.10,SSE,149,0,0,90.2,0.00,,,0.00,0,0,n/a,2026-09-01T05:19:57Z
2026-09-01 01:24:58,73.9,71.1,30.10,SSE,149,0,1.2,91,0.00,,,0.00,0,0,n/a,2026-09-01T05:24:58Z
2026-09-01 01:29:58,73.9,71.1,30.10,SSE,149,0,0,91,0.00,,,0.00,0,0,n/a,2026-09-01T05:29:58Z
2026-09-01 01:34:57,73.8,71,30.10,SSE,149,0,0,91,0.00,,,0.00,0,0,n/a,2026-09-01T05:34:57Z
2026-09-01 01:39:58,73.7,70.9,30.10,SSE,149,0.1,2.3,91,0.00,,,0.00,0,0,n/a,2026-09-01T05:39:58Z
2026-09-01 01:44:58,73.6,70.8,30.10,SSE,149,0,1.2,91,0.00,,,0.00,0,0,n/a,2026-09-01T05:44:58Z
2026-09-01 01:49:58,73.5,70.9,30.10,SSE,148,0.1,1.2,91.9,0.00,,,0.00,0,0,n/a,2026-09-01T05:49:58Z
2026-09-01 01:54:59,73.4,70.8,30.10,SSE,148,0,2.3,91.6,0.00,,,0.00,0,0,n/a,2026-09-01T05:54:59Z
2026-09-01 01:59:57,73.3,70.5,30.10,SSE,148,0,0,91,0.00,,,0.00,0,0,n/a,2026-09-01T05:59:57Z
2026-09-01 02:04:59,73.3,70.6,30.10,SSE,148,0,2.3,91.3,0.00,,,0.00,0,0,n/a,2026-09-01T06:04:59Z
2026-09-01 02:09:56,73.3,70.8,30.10,SSE,148,0,2.3,92,0.00,,,0.00,0,0,n/a,2026-09-01T06:09:56Z
2026-09-01 02:14:57,73.2,70.7,30.10,SSE,148,0.2,2.3,92,0.00,,,0.00,0,0,n/a,2026-09-01T06:14:57Z
2026-09-01 02:19:58,73.2,70.7,30.09,SSE,148,0,0,92,0.00,,,0.00,0,0,n/a,2026-09-01T06:19:58Z
2026-09-01 02:24:59,73.2,70.7,30.09,SSE,148,0,0,92,0.00,,,0.00,0,0,n/a,2026-09-01T06:24:59Z
2026-09-01 02:29:57,73.1,70.6,30.09,SSE,148,0,0,92,0.00,,,0.00,0,0,n/a,2026-09-01T06:29:57Z
2026-09-01 02:34:56,73.1,70.6,30.09,SSE,148,0,0,92,0.00,,,0.00,0,0,n/a,2026-09-01T06:34:56Z
2026-09-01 02:39:58,73.1,70.9,30.09,SSE,148,0.1,1.2,92.5,0.00,,,0.00,0,0,n/a,2026-09-01T06:39:58Z
2026-09-01 02:44:58,73.2,70.7,30.09,SSE,148,0.1,2.3,92,0.00,,,0.00,0,0,n/a,2026-09-01T06:44:58Z
2026-09-01 02:49:59,73.1,70.6,30.09,SSE,148,0,0,92,0.00,,,0.00,0,0,n/a,2026-09-01T06:49:59Z
2026-09-01 02:54:59,73.2,70.8,30.09,SSE,148,0,1.2,92.4,0.00,,,0.00,0,0,n/a,2026-09-01T06:54:59Z
2026-09-01 02:59:57,73.2,71.1,30.09,SSE,148,0,0,93,0.00,,,0.00,0,0,n/a,2026-09-01T06:59:57Z
2026-09-01 03:04:59,73.2,71.1,30.09,SSE,148,0,0,93,0.00,,,0.00,0,0,n/a,2026-09-01T07:04:59Z
2026-09-01 03:09:59,73.2,71.1,30.09,SSE,148,0,0,93,0.00,,,0.00,0,0,n/a,2026-09-01T07:09:59Z
2026-09-01 03:14:56,73.3,71.2,30.09,SSE,148,0,0,93,0.00,,,0.00,0,0,n/a,2026-09-01T07:14:56Z
2026-09-01 03:19:58,73.4,71.3,30.09,SSE,148,0.1,1.2,93,0.00,,,0.00,0,0,n/a,2026-09-01T07:19:58Z
2026-09-01 03:24:59,73.4,71.3,30.09,SSE,148,0.1,2.3,93,0.00,,,0.00,0,0,n/a,2026-09-01T07:24:59Z
2026-09-01 03:29:59,73.4,71.3,30.09,SSE,148,0.1,2.3,93,0.00,,,0.00,0,0,n/a,2026-09-01T07:29:59Z
2026-09-01 03:34:59,73.4,71.3,30.09,SSE,148,0,0,93,0.00,,,0.00,0,0,n/a,2026-09-01T07:34:59Z
2026-09-01 03:39:59,73.5,71.4,30.09,SSE,148,0,0,93,0.00,,,0.00,0,0,n/a,2026-09-01T07:39:59Z
2026-09-01 03:44:56,73.5,71.4,30.09,SSE,148,0,0,93,0.00,,,0.00,0,0,n/a,2026-09-01T07:44:56Z
2026-09-01 03:49:56,73.4,71.3,30.08,SSE,148,0,0,93,0.00,,,0.00,0,0,n/a,2026-09-01T07:49:56Z
2026-09-01 03:54:57,73.4,71.3,30.08,SSE,148,0,0,93,0.00,,,0.00,0,0,n/a,2026-09-01T07:54:57Z
2026-09-01 03:59:59,73.4,71.3,30.08,SSE,148,0,0,93,0.00,,,0.00,0,0,n/a,2026-09-01T07:59:59Z
2026-09-01 04:04:59,73.5,71.4,30.08,SSE,148,0.1,2.3,93,0.00,,,0.00,0,0,n/a,2026-09-01T08:04:59Z
2026-09-01 04:09:59,73.5,71.4,30.08,SSE,148,0.1,2.3,93,0.00,,,0.00,0,0,n/a,2026-09-01T08:09:59Z
2026-09-01 04:14:57,73.4,71.3,30.08,SSE,148,0,0,93,0.00,,,0.00,0,0,n/a,2026-09-01T08:14:57Z
2026-09-01 04:19:56,73.4,71.3,30.08,SSE,148,0,1.2,93,0.00,,,0.00,0,0,n/a,2026-09-01T08:19:56Z
2026-09-01 04:24:59,73.5,71.4,30.08,SSE,148,0.2,2.3,93,0.00,,,0.00,0,0,n/a,2026-09-01T08:24:59Z
2026-09-01 04:29:56,73.5,71.4,30.08,SSE,148,0.2,2.3,93,0.00,,,0.00,0,0,n/a,2026-09-01T08:29:56Z